createdAt,value
2023-01-08T00:01:16.773Z,1.25
2023-01-08T00:03:45.247Z,1.70
2023-01-08T00:06:16.709Z,1.42
2023-01-08T00:08:45.494Z,1.23
2023-01-08T00:11:14.390Z,1.30
2023-01-08T00:13:42.869Z,1.23
2023-01-08T00:16:13.146Z,1.58
2023-01-08T00:18:41.550Z,1.13
2023-01-08T00:21:10.446Z,1.17
2023-01-08T00:23:40.672Z,1.50
2023-01-08T00:26:10.893Z,0.75
2023-01-08T00:28:40.092Z,0.85
2023-01-08T00:31:10.965Z,1.08
2023-01-08T00:33:40.740Z,1.58
2023-01-08T00:36:10.856Z,0.90
2023-01-08T00:38:40.773Z,0.75
2023-01-08T00:41:09.206Z,1.77
2023-01-08T00:43:37.494Z,1.52
2023-01-08T00:46:06.452Z,1.88
2023-01-08T00:48:37.415Z,0.95
2023-01-08T00:51:07.139Z,1.02
2023-01-08T00:53:35.959Z,0.75
2023-01-08T00:56:08.479Z,0.95
2023-01-08T00:58:36.842Z,0.80
2023-01-08T01:01:11.329Z,1.20
2023-01-08T01:03:39.704Z,1.02
2023-01-08T01:06:09.059Z,0.63
2023-01-08T01:08:37.303Z,1.08
2023-01-08T01:11:09.465Z,0.88
2023-01-08T01:13:37.753Z,0.93
2023-01-08T01:16:06.357Z,1.30
2023-01-08T01:18:34.623Z,0.52
2023-01-08T01:21:02.886Z,1.00
2023-01-08T01:23:31.206Z,0.63
2023-01-08T01:25:59.392Z,0.95
2023-01-08T01:28:29.128Z,1.60
2023-01-08T01:30:58.030Z,0.75
2023-01-08T01:33:26.378Z,1.15
2023-01-08T01:36:14.108Z,0.85
2023-01-08T01:38:44.847Z,0.93
2023-01-08T01:41:24.582Z,0.38
2023-01-08T01:43:55.445Z,0.30
2023-01-08T01:46:32.296Z,0.30
2023-01-08T01:49:04.355Z,0.45
2023-01-08T01:51:35.516Z,0.55
2023-01-08T01:54:06.154Z,0.13
2023-01-08T01:56:35.858Z,0.10
2023-01-08T01:59:06.403Z,0.32
2023-01-08T02:01:35.816Z,0.20
2023-01-08T02:04:04.200Z,0.30
2023-01-08T02:06:38.634Z,0.82
2023-01-08T02:09:14.282Z,0.08
2023-01-08T02:11:48.370Z,0.40
2023-01-08T02:14:27.008Z,0.40
2023-01-08T02:17:01.250Z,0.30
2023-01-08T02:19:41.083Z,0.43
2023-01-08T02:22:22.753Z,0.32
2023-01-08T02:24:57.250Z,0.13
2023-01-08T02:27:30.871Z,0.22
2023-01-08T02:29:59.599Z,0.35
2023-01-08T02:32:28.402Z,0.28
2023-01-08T02:34:57.064Z,0.60
2023-01-08T02:37:25.395Z,0.40
2023-01-08T02:40:06.851Z,0.63
2023-01-08T02:42:44.320Z,0.52
2023-01-08T02:45:23.142Z,0.57
2023-01-08T02:47:56.207Z,0.50
2023-01-08T02:50:30.692Z,0.10
2023-01-08T02:53:05.167Z,0.68
2023-01-08T02:55:37.175Z,0.52
2023-01-08T02:58:07.424Z,0.80
2023-01-08T03:00:36.731Z,0.43
2023-01-08T03:03:11.066Z,0.60
2023-01-08T03:05:42.949Z,0.60
2023-01-08T03:08:13.116Z,0.40
2023-01-08T03:10:45.717Z,0.75
2023-01-08T03:13:20.903Z,0.68
2023-01-08T03:15:53.417Z,0.70
2023-01-08T03:18:29.159Z,0.80
2023-01-08T03:20:57.540Z,0.73
2023-01-08T03:23:27.923Z,0.88
2023-01-08T03:25:56.188Z,0.85
2023-01-08T03:28:30.708Z,1.00
2023-01-08T03:31:00.303Z,1.15
2023-01-08T03:33:31.683Z,0.60
2023-01-08T03:36:03.075Z,0.47
2023-01-08T03:38:36.011Z,0.35
2023-01-08T03:41:08.634Z,0.80
2023-01-08T03:43:38.171Z,1.60
2023-01-08T03:46:10.763Z,0.65
2023-01-08T03:48:39.797Z,1.17
2023-01-08T03:51:09.977Z,0.70
2023-01-08T03:53:38.300Z,0.40
2023-01-08T03:56:06.918Z,0.70
2023-01-08T03:58:35.131Z,0.75
2023-01-08T04:01:04.660Z,1.08
2023-01-08T04:03:32.936Z,0.73
2023-01-08T04:06:01.707Z,0.35
2023-01-08T04:08:30.060Z,0.47
2023-01-08T04:10:58.231Z,0.70
2023-01-08T04:13:26.543Z,0.28
2023-01-08T04:15:54.728Z,0.28
2023-01-08T04:18:24.496Z,0.60
2023-01-08T04:20:52.769Z,0.43
2023-01-08T04:23:21.042Z,0.40
2023-01-08T04:25:49.319Z,0.30
2023-01-08T04:28:17.589Z,0.65
2023-01-08T04:30:46.022Z,0.38
2023-01-08T04:33:14.343Z,0.10
2023-01-08T04:35:43.845Z,0.50
2023-01-08T04:38:12.132Z,0.38
2023-01-08T04:40:40.302Z,0.52
2023-01-08T04:43:08.578Z,0.63
2023-01-08T04:45:36.955Z,0.00
2023-01-08T04:48:05.543Z,0.25
2023-01-08T04:50:33.826Z,0.03
2023-01-08T04:53:03.924Z,0.13
2023-01-08T04:55:32.140Z,0.73
2023-01-08T04:58:00.413Z,0.40
2023-01-08T05:00:28.672Z,0.17
2023-01-08T05:02:57.094Z,0.20
2023-01-08T05:05:25.317Z,0.63
2023-01-08T05:07:53.633Z,0.17
2023-01-08T05:10:23.174Z,0.47
2023-01-08T05:12:51.407Z,0.40
2023-01-08T05:15:19.618Z,0.08
2023-01-08T05:17:47.839Z,0.50
2023-01-08T05:20:17.925Z,0.30
2023-01-08T05:22:49.505Z,0.10
2023-01-08T05:25:17.825Z,0.57
2023-01-08T05:27:47.485Z,0.35
2023-01-08T05:30:15.997Z,0.00
2023-01-08T05:32:44.293Z,0.00
2023-01-08T05:35:12.472Z,0.25
2023-01-08T05:37:40.697Z,0.22
2023-01-08T05:40:09.588Z,0.10
2023-01-08T05:42:38.269Z,0.20
2023-01-08T05:45:09.035Z,0.30
2023-01-08T05:47:37.642Z,0.47
2023-01-08T05:50:06.298Z,0.20
2023-01-08T05:52:34.617Z,0.05
2023-01-08T05:55:02.696Z,0.00
2023-01-08T05:57:30.940Z,0.10
2023-01-08T05:59:59.128Z,0.20
2023-01-08T06:02:28.820Z,0.10
2023-01-08T06:04:57.017Z,0.00
2023-01-08T06:07:25.227Z,0.25
2023-01-08T06:09:53.353Z,0.10
2023-01-08T06:12:21.925Z,0.03
2023-01-08T06:14:50.077Z,0.10
2023-01-08T06:17:18.322Z,0.20
2023-01-08T06:19:48.361Z,0.43
2023-01-08T06:22:16.621Z,0.10
2023-01-08T06:24:44.694Z,0.10
2023-01-08T06:27:12.884Z,0.20
2023-01-08T06:29:41.148Z,0.20
2023-01-08T06:32:09.409Z,0.25
2023-01-08T06:34:37.571Z,0.30
2023-01-08T06:37:07.097Z,0.03
2023-01-08T06:39:35.265Z,0.30
2023-01-08T06:42:03.592Z,0.35
2023-01-08T06:44:31.787Z,0.20
2023-01-08T06:47:00.010Z,0.65
2023-01-08T06:49:28.138Z,0.10
2023-01-08T06:51:57.273Z,0.30
2023-01-08T06:54:26.742Z,0.17
2023-01-08T06:56:55.012Z,0.25
2023-01-08T06:59:23.228Z,0.05
2023-01-08T07:01:51.841Z,0.15
2023-01-08T07:04:20.878Z,0.10
2023-01-08T07:06:49.136Z,0.43
2023-01-08T07:09:17.595Z,0.22
2023-01-08T07:11:47.235Z,0.03
2023-01-08T07:14:15.935Z,0.28
2023-01-08T07:16:44.206Z,0.40
2023-01-08T07:19:12.727Z,0.10
2023-01-08T07:21:40.931Z,0.32
2023-01-08T07:24:09.423Z,0.17
2023-01-08T07:26:39.703Z,0.35
2023-01-08T07:29:09.295Z,0.10
2023-01-08T07:31:37.621Z,0.05
2023-01-08T07:34:06.322Z,0.35
2023-01-08T07:36:34.602Z,0.20
2023-01-08T07:39:03.017Z,0.08
2023-01-08T07:41:31.243Z,0.17
2023-01-08T07:43:59.369Z,0.35
2023-01-08T07:46:29.028Z,0.00
2023-01-08T07:48:58.197Z,0.10
2023-01-08T07:51:26.567Z,0.28
2023-01-08T07:53:56.422Z,0.52
2023-01-08T07:56:25.303Z,0.08
2023-01-08T07:58:53.485Z,0.15
2023-01-08T08:01:22.067Z,0.73
2023-01-08T08:03:51.636Z,0.60
2023-01-08T08:06:19.925Z,0.17
2023-01-08T08:08:48.234Z,0.50
2023-01-08T08:11:16.570Z,0.50
2023-01-08T08:13:45.171Z,0.40
2023-01-08T08:16:13.790Z,0.35
2023-01-08T08:18:42.012Z,0.30
2023-01-08T08:21:11.764Z,0.30
2023-01-08T08:23:40.000Z,0.03
2023-01-08T08:26:08.267Z,0.20
2023-01-08T08:28:36.554Z,0.40
2023-01-08T08:31:04.823Z,0.80
2023-01-08T08:33:33.149Z,0.38
2023-01-08T08:36:01.480Z,0.30
2023-01-08T08:38:30.994Z,0.65
2023-01-08T08:40:59.456Z,0.30
2023-01-08T08:43:27.694Z,0.60
2023-01-08T08:45:57.019Z,0.20
2023-01-08T08:48:25.349Z,0.50
2023-01-08T08:50:53.624Z,0.28
2023-01-08T08:53:21.749Z,0.55
2023-01-08T08:55:51.296Z,0.20
2023-01-08T08:58:19.483Z,0.80
2023-01-08T09:00:47.664Z,0.47
2023-01-08T09:03:16.786Z,0.20
2023-01-08T09:05:45.436Z,0.55
2023-01-08T09:08:14.233Z,0.35
2023-01-08T09:10:43.721Z,0.73
2023-01-08T09:13:13.490Z,0.45
2023-01-08T09:15:41.654Z,0.85
2023-01-08T09:18:09.935Z,0.28
2023-01-08T09:20:38.272Z,0.55
2023-01-08T09:23:07.148Z,0.43
2023-01-08T09:25:35.434Z,0.52
2023-01-08T09:28:05.327Z,0.38
2023-01-08T09:30:35.515Z,0.35
2023-01-08T09:33:04.899Z,0.50
2023-01-08T09:35:33.464Z,0.40
2023-01-08T09:38:01.822Z,0.25
2023-01-08T09:40:34.755Z,0.50
2023-01-08T09:43:06.126Z,0.37
2023-01-08T09:45:40.786Z,0.38
2023-01-08T09:48:15.418Z,0.50
2023-01-08T09:50:43.880Z,0.68
2023-01-08T09:53:15.944Z,0.65
2023-01-08T09:55:44.737Z,1.35
2023-01-08T09:58:23.369Z,0.65
2023-01-08T10:00:54.099Z,0.40
2023-01-08T10:03:26.944Z,0.28
2023-01-08T10:05:55.427Z,0.20
2023-01-08T10:08:23.813Z,0.08
2023-01-08T10:10:52.211Z,0.50
2023-01-08T10:13:20.455Z,1.42
2023-01-08T10:15:49.769Z,0.52
2023-01-08T10:18:22.534Z,1.02
2023-01-08T10:20:52.290Z,0.38
2023-01-08T10:23:24.012Z,0.75
2023-01-08T10:25:55.576Z,0.43
2023-01-08T10:28:25.955Z,0.57
2023-01-08T10:30:59.686Z,0.35
2023-01-08T10:36:03.655Z,0.43
2023-01-08T10:38:34.634Z,0.30
2023-01-08T10:41:06.574Z,0.15
2023-01-08T10:43:38.173Z,0.30
2023-01-08T10:46:14.179Z,0.43
2023-01-08T10:48:49.348Z,0.40
2023-01-08T10:51:21.643Z,1.02
2023-01-08T10:53:49.901Z,0.75
2023-01-08T10:56:22.294Z,0.35
2023-01-08T10:58:51.490Z,0.77
2023-01-08T11:01:24.068Z,0.73
2023-01-08T11:03:55.714Z,0.60
2023-01-08T11:06:27.639Z,0.50
2023-01-08T11:08:58.721Z,0.28
2023-01-08T11:11:34.972Z,0.30
2023-01-08T11:14:06.407Z,0.32
2023-01-08T11:16:38.073Z,0.40
2023-01-08T11:19:17.913Z,0.60
2023-01-08T11:21:56.800Z,0.55
2023-01-08T11:24:30.681Z,0.45
2023-01-08T11:27:05.023Z,0.30
2023-01-08T11:29:42.439Z,0.20
2023-01-08T11:32:26.646Z,0.50
2023-01-08T11:35:01.735Z,0.20
2023-01-08T11:37:34.925Z,0.50
2023-01-08T11:40:03.460Z,0.20
2023-01-08T11:42:47.924Z,0.20
2023-01-08T11:45:26.382Z,0.22
2023-01-08T11:48:16.336Z,0.50
2023-01-08T11:50:58.735Z,0.47
2023-01-08T11:53:32.561Z,0.10
2023-01-08T11:58:55.493Z,0.40
2023-01-08T12:01:41.853Z,0.35
2023-01-08T12:04:29.150Z,0.55
2023-01-08T12:07:07.459Z,0.10
2023-01-08T12:09:42.329Z,0.25
2023-01-08T12:12:24.668Z,0.47
2023-01-08T12:15:05.990Z,0.17
2023-01-08T12:17:56.379Z,0.30
2023-01-08T12:20:34.688Z,0.08
2023-01-08T12:23:15.092Z,0.20
2023-01-08T12:25:54.940Z,0.05
2023-01-08T12:28:39.488Z,0.32
2023-01-08T12:31:25.641Z,0.10
2023-01-08T12:33:58.326Z,0.00
2023-01-08T12:36:34.495Z,0.00
2023-01-08T12:39:07.550Z,0.32
2023-01-08T12:41:37.351Z,0.08
2023-01-08T12:44:10.232Z,0.00
2023-01-08T12:46:43.188Z,0.00
2023-01-08T12:49:15.947Z,0.00
2023-01-08T12:51:56.200Z,0.00
2023-01-08T12:54:32.004Z,0.03
2023-01-08T12:57:09.355Z,0.30
2023-01-08T12:59:44.233Z,0.00
2023-01-08T13:02:25.007Z,0.00
2023-01-08T13:04:53.482Z,0.10
2023-01-08T13:07:24.366Z,0.10
2023-01-08T13:10:01.829Z,0.08
2023-01-08T13:12:36.141Z,0.00
2023-01-08T13:15:06.019Z,0.22
2023-01-08T13:17:34.887Z,0.08
2023-01-08T13:20:05.935Z,0.10
2023-01-08T13:22:36.674Z,0.00
2023-01-08T13:25:29.674Z,0.00
2023-01-08T13:27:58.932Z,0.03
2023-01-08T13:30:38.401Z,0.00
2023-01-08T13:33:29.098Z,0.00
2023-01-08T13:36:17.760Z,0.10
2023-01-08T13:38:46.617Z,0.00
2023-01-08T13:41:35.175Z,0.22
2023-01-08T13:44:06.377Z,0.08
2023-01-08T13:46:40.502Z,0.05
2023-01-08T13:49:11.237Z,0.00
2023-01-08T13:51:42.922Z,0.35
2023-01-08T13:54:21.631Z,0.03
2023-01-08T13:56:56.154Z,0.20
2023-01-08T13:59:35.417Z,0.10
2023-01-08T14:02:04.225Z,0.10
2023-01-08T14:04:32.474Z,0.63
2023-01-08T14:07:14.693Z,0.32
2023-01-08T14:09:43.014Z,0.10
2023-01-08T14:12:16.087Z,0.20
2023-01-08T14:14:50.087Z,0.10
2023-01-08T14:17:19.965Z,0.30
2023-01-08T14:19:49.045Z,0.28
2023-01-08T14:22:21.066Z,0.28
2023-01-08T14:24:56.507Z,0.00
2023-01-08T14:27:28.860Z,0.20
2023-01-08T14:29:58.381Z,0.35
2023-01-08T14:32:29.621Z,0.55
2023-01-08T14:35:00.493Z,0.20
2023-01-08T14:37:28.839Z,0.08
2023-01-08T14:39:57.160Z,0.35
2023-01-08T14:42:51.141Z,0.10
2023-01-08T14:45:22.534Z,0.20
2023-01-08T14:47:54.403Z,0.10
2023-01-08T14:50:26.536Z,0.40
2023-01-08T14:52:58.773Z,0.10
2023-01-08T14:55:28.532Z,0.08
2023-01-08T14:57:58.510Z,0.25
2023-01-08T15:00:29.792Z,0.20
2023-01-08T15:02:58.220Z,0.10
2023-01-08T15:05:30.090Z,0.00
2023-01-08T15:08:03.006Z,0.15
2023-01-08T15:10:36.153Z,0.20
2023-01-08T15:13:07.711Z,0.35
2023-01-08T15:15:41.281Z,0.52
2023-01-08T15:18:12.814Z,0.08
2023-01-08T15:20:42.050Z,0.13
2023-01-08T15:23:26.040Z,0.10
2023-01-08T15:28:25.196Z,0.20
2023-01-08T15:30:54.122Z,0.30
2023-01-08T15:33:23.821Z,0.25
2023-01-08T15:35:52.702Z,0.00
2023-01-08T15:38:23.846Z,0.30
2023-01-08T15:40:54.382Z,0.10
2023-01-08T15:43:23.880Z,0.00
2023-01-08T15:45:52.453Z,0.25
2023-01-08T15:48:20.791Z,0.10
2023-01-08T15:50:49.040Z,0.05
2023-01-08T15:53:19.517Z,0.38
2023-01-08T15:55:47.994Z,0.20
2023-01-08T15:58:17.111Z,0.20
2023-01-08T16:00:47.716Z,0.32
2023-01-08T16:03:17.354Z,0.30
2023-01-08T16:05:45.602Z,0.40
2023-01-08T16:08:13.890Z,0.32
2023-01-08T16:10:42.094Z,0.30
2023-01-08T16:13:12.188Z,1.83
2023-01-08T16:15:40.951Z,0.47
2023-01-08T16:18:10.920Z,2.10
2023-01-08T16:20:39.703Z,1.38
2023-01-08T16:23:08.314Z,0.47
2023-01-08T16:25:36.619Z,0.22
2023-01-08T16:28:04.996Z,0.77
2023-01-08T16:30:33.262Z,1.13
2023-01-08T16:33:01.628Z,1.90
2023-01-08T16:35:31.159Z,1.20
2023-01-08T16:37:59.472Z,1.40
2023-01-08T16:40:27.666Z,0.70
2023-01-08T16:43:01.815Z,1.20
2023-01-08T16:45:30.101Z,2.25
2023-01-08T16:47:58.377Z,2.60
2023-01-08T16:50:26.591Z,1.65
2023-01-08T16:52:56.100Z,1.48
2023-01-08T16:55:24.313Z,0.70
2023-01-08T16:57:55.257Z,1.25
2023-01-08T17:00:24.003Z,1.52
2023-01-08T17:02:52.287Z,1.05
2023-01-08T17:05:20.697Z,1.00
2023-01-08T17:07:52.578Z,0.80
2023-01-08T17:10:22.603Z,1.50
2023-01-08T17:12:50.990Z,0.98
2023-01-08T17:15:19.747Z,1.40
2023-01-08T17:17:48.011Z,0.70
2023-01-08T17:20:16.551Z,0.30
2023-01-08T17:22:44.760Z,5.13
2023-01-08T17:25:13.356Z,1.83
2023-01-08T17:27:43.087Z,3.08
2023-01-08T17:30:13.097Z,0.77
2023-01-08T17:32:44.134Z,1.95
2023-01-08T17:35:12.469Z,0.73
2023-01-08T17:37:40.722Z,0.57
2023-01-08T17:40:10.110Z,0.55
2023-01-08T17:42:39.416Z,0.40
2023-01-08T17:45:10.175Z,1.17
2023-01-08T17:47:39.230Z,1.27
2023-01-08T17:50:07.754Z,0.85
2023-01-08T17:52:37.671Z,0.52
2023-01-08T17:55:06.652Z,1.10
2023-01-08T17:57:34.919Z,0.82
2023-01-08T18:00:03.033Z,1.52
2023-01-08T18:02:34.323Z,1.58
2023-01-08T18:05:02.614Z,1.50
2023-01-08T18:07:30.800Z,5.15
2023-01-08T18:09:59.028Z,3.67
2023-01-08T18:12:27.241Z,2.08
2023-01-08T18:14:55.532Z,2.90
2023-01-08T18:17:23.863Z,6.70
2023-01-08T18:19:53.492Z,0.60
2023-01-08T18:22:22.179Z,3.50
2023-01-08T18:24:50.387Z,1.63
2023-01-08T18:27:18.638Z,1.17
2023-01-08T18:29:46.836Z,1.08
2023-01-08T18:32:15.044Z,1.40
2023-01-08T18:34:43.282Z,1.50
2023-01-08T18:37:12.800Z,1.67
2023-01-08T18:39:41.083Z,0.98
2023-01-08T18:42:27.446Z,0.90
2023-01-08T18:44:56.770Z,0.90
2023-01-08T18:47:26.671Z,0.98
2023-01-08T18:49:56.010Z,2.10
2023-01-08T18:52:25.997Z,2.00
2023-01-08T18:54:54.365Z,2.13
2023-01-08T18:57:22.508Z,1.70
2023-01-08T18:59:51.198Z,1.23
2023-01-08T19:02:21.754Z,0.75
2023-01-08T19:04:50.445Z,1.10
2023-01-08T19:07:19.184Z,1.10
2023-01-08T19:09:48.764Z,1.20
2023-01-08T19:12:17.004Z,2.28
2023-01-08T19:14:46.987Z,0.60
2023-01-08T19:17:15.652Z,1.10
2023-01-08T19:19:43.923Z,0.50
2023-01-08T19:22:12.425Z,1.13
2023-01-08T19:24:40.603Z,0.65
2023-01-08T19:27:10.442Z,1.00
2023-01-08T19:29:38.795Z,0.60
2023-01-08T19:32:08.083Z,0.50
2023-01-08T19:34:36.253Z,0.63
2023-01-08T19:37:04.946Z,0.88
2023-01-08T19:39:33.168Z,0.77
2023-01-08T19:42:19.352Z,0.45
2023-01-08T19:44:48.869Z,0.98
2023-01-08T19:47:17.335Z,0.77
2023-01-08T19:49:47.833Z,0.88
2023-01-08T19:52:16.168Z,0.70
2023-01-08T19:54:44.993Z,0.40
2023-01-08T19:57:13.491Z,0.80
2023-01-08T19:59:41.853Z,0.68
2023-01-08T20:02:12.556Z,0.60
2023-01-08T20:04:42.871Z,0.85
2023-01-08T20:07:11.403Z,0.60
2023-01-08T20:09:39.712Z,0.38
2023-01-08T20:12:08.245Z,0.60
2023-01-08T20:14:36.599Z,0.40
2023-01-08T20:17:05.034Z,0.70
2023-01-08T20:19:34.851Z,0.43
2023-01-08T20:22:03.062Z,0.32
2023-01-08T20:24:31.611Z,0.65
2023-01-08T20:26:59.794Z,0.80
2023-01-08T20:29:28.976Z,0.52
2023-01-08T20:31:59.540Z,0.60
2023-01-08T20:34:28.396Z,0.47
2023-01-08T20:36:58.024Z,0.40
2023-01-08T20:39:26.646Z,0.43
2023-01-08T20:41:55.681Z,0.63
2023-01-08T20:44:32.193Z,0.88
2023-01-08T20:47:00.443Z,0.50
2023-01-08T20:49:29.668Z,0.50
2023-01-08T20:52:00.433Z,0.57
2023-01-08T20:54:30.516Z,0.30
2023-01-08T20:57:00.214Z,0.90
2023-01-08T20:59:29.464Z,0.70
2023-01-08T21:01:57.849Z,0.90
2023-01-08T21:04:26.118Z,0.63
2023-01-08T21:06:54.320Z,0.98
2023-01-08T21:09:24.094Z,0.38
2023-01-08T21:11:52.318Z,1.00
2023-01-08T21:14:20.675Z,1.00
2023-01-08T21:16:48.963Z,0.63
2023-01-08T21:19:17.279Z,0.98
2023-01-08T21:21:45.879Z,1.67
2023-01-08T21:24:15.341Z,4.32
2023-01-08T21:26:46.285Z,4.28
2023-01-08T21:29:17.030Z,2.10
2023-01-08T21:31:45.407Z,1.70
2023-01-08T21:34:13.994Z,2.78
2023-01-08T21:36:42.488Z,2.45
2023-01-08T21:39:11.563Z,2.25
2023-01-08T21:41:57.258Z,1.92
2023-01-08T21:44:45.122Z,2.45
2023-01-08T21:47:16.608Z,6.53
2023-01-08T21:49:45.502Z,4.68
2023-01-08T21:52:31.416Z,3.00
2023-01-08T21:54:59.675Z,2.10
2023-01-08T21:57:28.333Z,4.05
2023-01-08T21:59:58.138Z,6.97
2023-01-08T22:02:26.608Z,4.00
2023-01-08T22:04:56.414Z,4.60
2023-01-08T22:07:24.729Z,3.00
2023-01-08T22:09:54.086Z,1.70
2023-01-08T22:12:24.665Z,0.90
2023-01-08T22:14:53.797Z,1.10
2023-01-08T22:17:24.755Z,0.75
2023-01-08T22:19:53.622Z,1.33
2023-01-08T22:22:21.869Z,0.88
2023-01-08T22:24:51.748Z,0.43
2023-01-08T22:27:20.452Z,0.63
2023-01-08T22:29:48.965Z,0.90
2023-01-08T22:32:17.322Z,1.05
2023-01-08T22:34:47.901Z,1.40
2023-01-08T22:37:17.183Z,1.35
2023-01-08T22:39:46.667Z,1.33
2023-01-08T22:42:14.864Z,1.38
2023-01-08T22:44:43.153Z,1.63
2023-01-08T22:47:11.281Z,1.38
2023-01-08T22:49:39.652Z,1.15
2023-01-08T22:52:09.883Z,0.60
2023-01-08T22:54:38.598Z,0.75
2023-01-08T22:57:07.671Z,1.55
2023-01-08T22:59:36.003Z,0.90
2023-01-08T23:02:04.212Z,0.60
2023-01-08T23:04:33.665Z,0.60
2023-01-08T23:07:01.816Z,0.82
2023-01-08T23:09:31.355Z,1.08
2023-01-08T23:11:59.464Z,0.70
2023-01-08T23:14:27.781Z,0.70
2023-01-08T23:16:55.928Z,0.57
2023-01-08T23:19:24.123Z,0.73
2023-01-08T23:21:52.296Z,0.73
2023-01-08T23:24:20.912Z,0.70
2023-01-08T23:26:50.403Z,0.77
2023-01-08T23:29:18.612Z,0.20
2023-01-08T23:31:47.854Z,0.30
2023-01-08T23:34:16.402Z,0.60
2023-01-08T23:36:44.601Z,0.40
2023-01-08T23:39:12.876Z,0.40
2023-01-08T23:41:41.281Z,0.47
2023-01-08T23:44:14.575Z,0.90
2023-01-08T23:46:43.030Z,0.30
2023-01-08T23:49:11.250Z,0.30
2023-01-08T23:51:42.348Z,0.20
2023-01-08T23:54:10.816Z,0.35
2023-01-08T23:56:39.661Z,0.65
2023-01-08T23:59:08.342Z,0.47
